KI4RPM Weather Reports


Display with metric or nautical units.
time (UTC)temp
F
wind
direction
speed
MPH
gust
MPH
rain 1hr
in
rain 24hr
in
rain mn
in
humidity
%
barometer
mb
20260508154529 66 255 0.0 4.0 0.00 0.00 0.00 49 1067.9
20260508154316 66 255 0.0 9.0 0.00 0.00 0.00 46 561.4
20260508153815 66 255 2.0 9.0 0.00 0.00 0.00 48
20260508153342 66 153 0.0 2.0 0.00 0.00 0.00 58 747.7
20260508153011 65 153 0.0 2.0 0.00 0.00 0.00 54 1067.9
20260508152830 66 153 0.0 2.0 0.00 0.00 0.00 53 913.1
20260508152316 65 153 0.0 0.0 0.00 0.00 0.00 52
20260508151839 65 180 0.0 6.0 0.00 0.00 0.00 52
20260508151604 64 181 0.0 6.0 0.00 0.00 0.00 55 1067.9
20260508151318 65 181 3.0 6.0 0.00 0.00 0.00 53 937.8
20260508150842 64 180 0.0 5.0 0.00 0.00 0.00 56
20260508150328 64 180 1.0 5.0 0.00 0.00 0.00 56
20260508150028 63 186 0.0 5.0 0.00 0.00 0.00 58 1067.9
20260508145833 64 187 1.0 5.0 0.00 0.00 0.00 56
20260508145340 64 206 0.0 1.0 0.00 0.00 0.00 60 610.8
20260508144816 64 207 0.0 1.0 0.00 0.00 0.00 60
20260508144519 63 220 0.0 1.0 0.00 0.00 0.00 66 1067.9
20260508144322 63 225 0.0 0.0 0.00 0.00 0.00 64
20260508143813 64 234 0.0 0.0 0.00 0.00 0.00 59 627.9
20260508143343 64 234 0.0 0.0 0.00 0.00 0.00 58 803.1
20260508143001 63 236 0.0 0.0 0.00 0.00 0.00 64 1067.9
20260508142814 64 236 0.0 0.0 0.00 0.00 0.00 65
20260508142319 63 238 0.0 0.0 0.00 0.00 0.00 62 315.2
20260508141845 63 238 0.0 0.0 0.00 0.00 0.00 65 172.9
20260508141535 62 238 0.0 0.0 0.00 0.00 0.00 64 1067.9
20260508141345 62 238 0.0 0.0 0.00 0.00 0.00 66
20260508140831 62 238 0.0 0.0 0.00 0.00 0.00 64 616.0
20260508140337 61 237 0.0 0.0 0.00 0.00 0.00 69
20260508140037 60 237 0.0 0.0 0.00 0.00 0.00 69 1067.9
20260508135821 61 237 0.0 0.0 0.00 0.00 0.00 69
20260508135343 61 238 0.0 0.0 0.00 0.00 0.00 69 752.3
20260508134820 61 238 0.0 0.0 0.00 0.00 0.00 71
20260508134528 60 238 0.0 0.0 0.00 0.00 0.00 66 1067.9
20260508134325 60 238 0.0 0.0 0.00 0.00 0.00 67 802.6
20260508133854 60 238 0.0 0.0 0.00 0.00 0.00 66
20260508133341 60 238 0.0 0.0 0.00 0.00 0.00 72 516.0
20260508133113 59 237 0.0 0.0 0.00 0.00 0.00 73 1067.9
20260508132830 60 237 0.0 0.0 0.00 0.00 0.00 74 413.2
20260508132333 60 237 0.0 0.0 0.00 0.00 0.00 73
20260508131840 59 231 0.0 0.0 0.00 0.00 0.00 81
20260508131529 58 231 0.0 0.0 0.00 0.00 0.00 80 1067.9
20260508131341 58 231 0.0 0.0 0.00 0.00 0.00 80 820.5
20260508130822 57 231 0.0 0.0 0.00 0.00 0.00 80
20260508130331 56 231 0.0 0.0 0.00 0.00 0.00 84 634.4
20260508125834 56 231 0.0 0.0 0.00 0.00 0.00 88
20260508125331 55 231 0.0 0.0 0.00 0.00 0.00 89
20260508124853 54 230 0.0 0.0 0.00 0.00 0.00 90 859.1
20260508124531 53 231 0.0 0.0 0.00 0.00 0.00 91 1067.9
20260508124333 54 230 0.0 0.0 0.00 0.00 0.00 92 360.1
20260508123832 53 231 0.0 0.0 0.00 0.00 0.00 93 121.7
20260508123336 52 231 0.0 0.0 0.00 0.00 0.00 94
20260508123007 51 231 0.0 0.0 0.00 0.00 0.00 94 1067.9
20260508122816 51 231 0.0 0.0 0.00 0.00 0.00 95
20260508122321 51 231 0.0 0.0 0.00 0.12 0.00 95
20260508121814 50 231 0.0 0.0 0.00 0.12 0.00 95 524.0
20260508121603 49 231 0.0 0.0 0.00 0.12 0.00 95 1067.9
20260508121318 50 231 0.0 0.0 0.00 0.12 0.00 95
20260508120846 49 231 0.0 0.0 0.00 0.12 0.00 95 120.2
20260508120329 48 231 0.0 0.0 0.00 0.12 0.00 95
20260508120023 47 230 0.0 0.0 0.00 0.12 0.00 95 1067.9
20260508115822 48 231 0.0 0.0 0.00 0.12 0.00 95
20260508115319 47 230 0.0 0.0 0.00 0.12 0.00 95 -109.5
20260508114833 47 230 0.0 0.0 0.00 0.12 0.00 95
20260508114531 46 231 0.0 0.0 0.00 0.12 0.00 95 1067.9
20260508114321 46 231 0.0 0.0 0.00 0.12 0.00 95
20260508113812 46 231 0.0 0.0 0.00 0.12 0.00 95 934.6
20260508113324 46 223 0.0 0.0 0.00 0.12 0.00 96 431.5
20260508113035 45 232 0.0 0.0 0.00 0.12 0.00 95 1067.9
20260508112817 46 232 0.0 0.0 0.00 0.12 0.00 95 10.7
20260508112341 45 232 0.0 0.0 0.00 0.14 0.00 95
20260508111840 45 232 0.0 0.0 0.00 0.14 0.00 95
20260508111511 44 232 0.0 0.0 0.00 0.14 0.00 95 1067.9
20260508111332 44 232 0.0 0.0 0.00 0.14 0.00 95
20260508110813 43 232 0.0 0.0 0.00 0.14 0.00 95 77.4
20260508110316 43 232 0.0 0.0 0.00 0.14 0.00 95
20260508110105 43 232 0.0 0.0 0.00 0.14 0.00 95 1067.9
20260508105826 43 232 0.0 0.0 0.00 0.14 0.00 95
20260508105315 42 232 0.0 0.0 0.00 0.14 0.00 94
20260508104843 42 221 0.0 0.0 0.00 0.14 0.00 94
20260508104548 42 221 0.0 0.0 0.00 0.14 0.00 94 1067.9
20260508104332 42 221 0.0 0.0 0.00 0.14 0.00 94
20260508103822 43 221 0.0 0.0 0.00 0.14 0.00 94
20260508103313 42 221 0.0 0.0 0.00 0.14 0.00 94 51.2
20260508103039 42 221 0.0 0.0 0.00 0.14 0.00 94 1067.9
20260508102815 43 221 0.0 0.0 0.00 0.14 0.00 94
20260508102340 43 221 0.0 0.0 0.00 0.14 0.00 94
20260508101823 43 221 0.0 0.0 0.00 0.14 0.00 94
20260508101519 42 221 0.0 0.0 0.00 0.14 0.00 94 1067.9
20260508101347 43 221 0.0 0.0 0.00 0.14 0.00 94
20260508100826 43 221 0.0 0.0 0.00 0.14 0.00 94 126.2
20260508100332 43 221 0.0 0.0 0.00 0.14 0.00 94
20260508100038 43 221 0.0 0.0 0.00 0.14 0.00 94 1067.9
20260508095844 43 221 0.0 0.0 0.00 0.14 0.00 94
20260508095349 43 221 0.0 0.0 0.00 0.14 0.00 94 0.4
20260508094836 43 221 0.0 0.0 0.00 0.14 0.00 94
20260508094612 43 221 0.0 0.0 0.00 0.14 0.00 94 1067.9
20260508094358 44 221 0.0 0.0 0.00 0.14 0.00 94 580.9
20260508093815 44 221 0.0 0.0 0.00 0.14 0.00 94
20260508093323 44 221 0.0 0.0 0.00 0.14 0.00 94 1016.2
20260508093040 43 221 0.0 0.0 0.00 0.14 0.00 94 1067.9
20260508092832 44 221 0.0 0.0 0.00 0.14 0.00 94 103.6
20260508092323 44 221 0.0 0.0 0.00 0.14 0.00 94 392.6
20260508091830 44 221 0.0 0.0 0.00 0.14 0.00 94
20260508091540 44 221 0.0 0.0 0.00 0.14 0.00 94 1067.9
20260508091315 44 221 0.0 0.0 0.00 0.14 0.00 94
20260508090814 44 221 0.0 0.0 0.00 0.14 0.00 94 545.6
20260508090350 44 221 0.0 0.0 0.00 0.14 0.00 94 731.1
20260508090109 43 221 0.0 0.0 0.00 0.14 0.00 94 1067.9
20260508085828 44 221 0.0 0.0 0.00 0.14 0.00 94 303.2
20260508085322 44 221 0.0 0.0 0.00 0.14 0.00 94
20260508084824 44 221 0.0 0.0 0.00 0.14 0.00 94
20260508084558 43 221 0.0 0.0 0.00 0.14 0.00 94 1067.9
20260508084324 44 221 0.0 0.0 0.00 0.14 0.00 94
20260508083828 44 221 0.0 0.0 0.00 0.14 0.00 93 116.3
20260508083333 44 221 0.0 0.0 0.00 0.14 0.00 93
20260508083054 44 221 0.0 0.0 0.00 0.14 0.00 94 1067.9
20260508082841 45 221 0.0 0.0 0.00 0.14 0.00 94 293.8
20260508082322 45 221 0.0 0.0 0.00 0.14 0.00 94 448.7
20260508081829 45 221 0.0 0.0 0.00 0.14 0.00 93 930.0
20260508081552 45 221 0.0 0.0 0.00 0.14 0.00 94 1067.9
20260508081316 45 221 0.0 0.0 0.00 0.14 0.00 94 108.8
20260508080845 45 221 0.0 0.0 0.00 0.14 0.00 94
20260508080345 45 221 0.0 0.0 0.00 0.14 0.00 94
20260508080004 45 221 0.0 0.0 0.00 0.14 0.00 94 1067.9
20260508075834 45 221 0.0 0.0 0.00 0.14 0.00 94
20260508075335 45 221 0.0 0.0 0.00 0.14 0.00 94 242.0
20260508074819 46 221 0.0 0.0 0.00 0.14 0.00 93 793.6
20260508074536 45 221 0.0 0.0 0.00 0.14 0.00 94 1067.9
20260508074325 46 221 0.0 0.0 0.00 0.14 0.00 93 971.7
20260508073818 46 221 0.0 0.0 0.00 0.14 0.00 93
20260508073326 46 221 0.0 0.0 0.00 0.14 0.00 93
20260508073033 45 221 0.0 0.0 0.00 0.14 0.00 93 1067.9
20260508072816 46 221 0.0 0.0 0.00 0.14 0.00 93
20260508072340 46 221 0.0 0.0 0.00 0.15 0.00 93
20260508071820 46 221 0.0 0.0 0.00 0.15 0.00 93 709.7
20260508071506 46 221 0.0 0.0 0.00 0.15 0.00 93 1067.9
20260508071329 46 221 0.0 0.0 0.00 0.15 0.00 93 6.3
20260508070850 46 221 0.0 0.0 0.00 0.15 0.00 93 227.5
20260508070319 46 221 0.0 0.0 0.00 0.15 0.00 93
20260508070041 46 221 0.0 0.0 0.00 0.15 0.00 93 1067.9
20260508065828 46 221 0.0 0.0 0.00 0.15 0.00 93
20260508065342 46 221 0.0 0.0 0.00 0.15 0.00 93
20260508064815 46 221 0.0 0.0 0.00 0.15 0.00 93 126.8
20260508064520 46 221 0.0 0.0 0.00 0.15 0.00 93 1067.9
20260508064340 47 221 0.0 0.0 0.00 0.15 0.00 93 -107.3
20260508063823 47 221 0.0 0.0 0.00 0.15 0.00 93 214.0
20260508063328 47 221 0.0 0.0 0.00 0.15 0.00 93 312.1
20260508063128 47 221 0.0 0.0 0.00 0.15 0.00 93 1067.9
20260508062823 47 221 0.0 0.0 0.00 0.15 0.00 93
20260508062357 47 221 0.0 0.0 0.00 0.16 0.00 92 -107.0
20260508061815 47 221 0.0 0.0 0.00 0.16 0.00 92
20260508061530 47 221 0.0 0.0 0.00 0.16 0.00 93 1067.9
20260508061326 47 221 0.0 0.0 0.00 0.16 0.00 92 923.8
20260508060832 47 221 0.0 0.0 0.00 0.16 0.00 92
20260508060315 47 221 0.0 0.0 0.00 0.16 0.00 92
20260508060002 47 221 0.0 0.0 0.00 0.16 0.00 91 1067.9
20260508055828 47 221 0.0 0.0 0.00 0.16 0.00 91
20260508055333 48 221 0.0 0.0 0.00 0.16 0.00 91
20260508054836 48 221 0.0 0.0 0.00 0.16 0.00 91
20260508054556 48 221 0.0 0.0 0.00 0.16 0.00 91 1067.9
20260508054323 48 221 0.0 0.0 0.00 0.16 0.00 91 34.6
20260508053816 48 221 0.0 0.0 0.00 0.16 0.00 91 871.3
20260508053329 48 221 0.0 0.0 0.00 0.16 0.00 91 205.2
20260508053101 48 221 0.0 0.0 0.00 0.16 0.00 91 1067.9
20260508052819 49 221 0.0 0.0 0.00 0.16 0.00 91 511.4
20260508052316 49 221 0.0 0.0 0.00 0.23 0.00 91
20260508051817 49 221 0.0 0.0 0.00 0.23 0.00 90
20260508051552 49 221 0.0 0.0 0.00 0.23 0.00 90 1067.9
20260508051320 49 221 0.0 0.0 0.00 0.23 0.00 90
20260508050821 49 221 0.0 0.0 0.00 0.23 0.00 90
20260508050328 49 221 0.0 0.0 0.00 0.23 0.00 90 648.3
20260508050025 49 221 0.0 0.0 0.00 0.23 0.00 90 1067.9
20260508045831 50 221 0.0 0.0 0.00 0.23 0.00 90
20260508045335 50 221 0.0 0.0 0.00 0.23 0.00 89 482.1
20260508044839 50 221 0.0 0.0 0.00 0.23 0.00 89 814.3
20260508044510 50 221 0.0 0.0 0.00 0.23 0.00 89 1067.9
20260508044316 50 221 0.0 0.0 0.00 0.23 0.00 89
20260508043817 50 221 0.0 0.0 0.00 0.23 0.00 89
20260508043338 51 221 0.0 0.0 0.00 0.23 0.00 89
20260508043055 50 221 0.0 0.0 0.00 0.23 0.00 88 1067.9
20260508042843 51 221 0.0 0.0 0.00 0.23 0.00 89 1082.5
20260508042319 51 221 0.0 0.0 0.00 0.24 0.23 88
20260508041824 51 221 0.0 0.0 0.00 0.24 0.23 88
20260508041546 51 221 0.0 0.0 0.00 0.24 0.23 88 1067.9
20260508041315 52 221 0.0 0.0 0.00 0.24 0.23 87
20260508040830 52 221 0.0 0.0 0.00 0.24 0.23 87 373.1
20260508040316 52 221 0.0 0.0 0.00 0.24 0.23 86 334.1
20260508040032 52 221 0.0 0.0 0.00 0.24 0.23 85 1067.9
20260508035816 52 221 0.0 0.0 0.00 0.24 0.23 85 303.5
20260508035338 53 221 0.0 0.0 0.00 0.24 0.23 84 370.5
20260508034818 53 221 0.0 0.0 0.00 0.24 0.23 84 568.9
20260508034525 53 221 0.0 0.0 0.00 0.24 0.23 83 1067.9
20260508034319 53 221 0.0 0.0 0.00 0.24 0.23 82 1032.9
20260508033820 54 221 0.0 0.0 0.00 0.24 0.23 81
20260508033346 54 221 0.0 0.0 0.00 0.24 0.23 81
20260508033050 53 221 0.0 0.0 0.00 0.24 0.23 81 1067.9
20260508032848 54 221 0.0 0.0 0.00 0.24 0.23 81
20260508032337 54 221 0.0 0.0 0.00 0.25 0.23 81 123.2
20260508031821 54 221 0.0 0.0 0.00 0.25 0.23 80
20260508031516 53 221 0.0 0.0 0.00 0.25 0.23 81 1067.9
20260508031325 54 221 0.0 0.0 0.00 0.25 0.23 81 719.4
20260508030833 54 221 0.0 0.0 0.00 0.25 0.23 81 19.4
20260508030343 54 221 0.0 0.0 0.00 0.25 0.23 80 660.0
20260508030047 54 221 0.0 0.0 0.00 0.25 0.23 80 1067.9
20260508025827 54 221 0.0 0.0 0.00 0.25 0.23 80
20260508025339 55 221 0.0 0.0 0.00 0.25 0.23 80 929.7
20260508024826 55 221 0.0 4.0 0.00 0.25 0.23 79
20260508024523 55 221 0.0 5.0 0.00 0.25 0.23 78 1067.9
20260508024320 56 221 1.0 8.0 0.00 0.25 0.23 78
20260508023835 56 221 4.0 8.0 0.00 0.25 0.23 77
20260508023321 56 222 5.0 9.0 0.00 0.25 0.23 77
20260508023046 56 226 5.0 9.0 0.00 0.25 0.23 77 1067.9
20260508022845 56 227 6.0 9.0 0.00 0.25 0.23 77
20260508022320 56 225 6.0 9.0 0.00 0.28 0.23 77
20260508021825 56 223 2.0 7.0 0.00 0.28 0.23 78 518.0
20260508021550 55 220 0.0 0.0 0.00 0.28 0.23 77 1067.9
20260508021333 55 219 0.0 0.0 0.00 0.28 0.23 78
20260508020813 56 220 0.0 0.0 0.00 0.28 0.23 78 552.8
20260508020326 56 220 0.0 0.0 0.00 0.28 0.23 78 758.1
20260508020039 55 220 0.0 0.0 0.00 0.28 0.23 77 1067.9
20260508015834 56 220 0.0 0.0 0.00 0.28 0.23 77 157.7
20260508015333 56 222 0.0 0.0 0.00 0.28 0.23 77 312.4
20260508014820 56 223 0.0 0.0 0.00 0.28 0.23 76 1082.6
20260508014533 56 223 0.0 0.0 0.00 0.28 0.23 75 1067.9
20260508014342 57 223 0.0 0.0 0.00 0.28 0.23 75
20260508013846 57 223 0.0 0.0 0.00 0.28 0.23 74 315.4
20260508013330 57 223 0.0 0.0 0.00 0.28 0.23 74
20260508013042 57 222 0.0 0.0 0.00 0.28 0.23 73 1039.8
20260508012836 58 222 0.0 0.0 0.00 0.28 0.23 73 937.1
20260508012339 58 222 0.0 0.0 0.00 0.32 0.23 72
20260508011817 58 223 0.0 0.0 0.00 0.32 0.23 73 927.1
20260508011511 57 222 0.0 0.0 0.00 0.32 0.23 73 1039.8
20260508011321 58 222 0.0 0.0 0.00 0.32 0.23 73
20260508010819 58 223 0.0 0.0 0.00 0.32 0.23 72
20260508010327 58 223 0.0 0.0 0.00 0.32 0.23 72 424.8
20260508010111 58 222 0.0 0.0 0.00 0.32 0.23 72 1039.8
20260508005823 58 222 0.0 0.0 0.00 0.32 0.23 72
20260508005324 58 222 0.0 5.0 0.00 0.32 0.23 72
20260508004825 59 222 0.0 7.0 0.00 0.32 0.23 72 538.1
20260508004541 58 223 3.0 7.0 0.00 0.32 0.23 71 1039.8
20260508004328 59 222 4.0 7.0 0.00 0.32 0.23 71 491.8
20260508003855 59 228 1.0 7.0 0.00 0.32 0.23 71 523.5
20260508003338 60 243 0.0 5.0 0.00 0.32 0.23 70
20260508003005 60 248 0.0 5.0 0.00 0.32 0.23 69 1039.8
20260508002833 60 248 0.0 7.0 0.00 0.32 0.23 69 810.5
20260508002318 61 248 2.0 7.0 0.00 0.39 0.23 68
20260508001839 61 251 0.0 6.0 0.00 0.39 0.23 67
20260508001600 61 251 0.0 6.0 0.00 0.39 0.23 67 1039.8
20260508001312 61 250 0.0 11.0 0.00 0.39 0.23 66 531.0
20260508000812 62 250 3.0 11.0 0.00 0.39 0.23 65 1090.4
20260508000320 62 233 4.0 12.0 0.00 0.39 0.23 65
20260508000026 62 246 3.0 13.0 0.00 0.39 0.23 64 1039.8
20260507235851 62 239 6.0 13.0 0.00 0.39 0.23 64
20260507235341 63 209 7.0 15.0 0.00 0.39 0.23 64
20260507234823 63 233 8.0 15.0 0.00 0.39 0.23 65 64.4
20260507234547 63 250 8.0 15.0 0.00 0.39 0.23 65 1039.8
20260507234331 63 261 7.0 15.0 0.00 0.39 0.23 64
20260507233826 64 244 9.0 15.0 0.00 0.39 0.23 65 776.9
20260507233322 64 219 6.0 16.0 0.00 0.39 0.23 66
20260507233051 63 211 9.0 16.0 0.00 0.39 0.23 65 1039.8
20260507232819 64 254 11.0 17.0 0.00 0.39 0.23 65
20260507232328 64 248 8.0 17.0 0.00 0.39 0.23 66 853.4
20260507231853 65 267 7.0 17.0 0.00 0.39 0.23 66
20260507231518 65 237 9.0 17.0 0.00 0.39 0.23 64 1039.8
20260507231337 66 223 11.0 17.0 0.00 0.39 0.23 64
20260507230845 67 239 8.0 15.0 0.00 0.39 0.23 64
20260507230328 67 249 7.0 12.0 0.00 0.39 0.23 65 302.8
20260507230046 67 241 5.0 14.0 0.00 0.39 0.23 65 1039.8
20260507225832 67 275 6.0 14.0 0.00 0.39 0.23 65
20260507225338 67 223 9.0 14.0 0.00 0.39 0.23 64
20260507224817 68 270 7.0 16.0 0.00 0.39 0.23 65
20260507224527 67 221 5.0 16.0 0.00 0.39 0.23 65 1039.8
20260507224346 68 244 8.0 16.0 0.00 0.39 0.23 65 225.6
20260507223830 68 242 8.0 18.0 0.00 0.39 0.23 64 162.3
20260507223337 69 237 9.0 18.0 0.00 0.39 0.23 63 173.7
20260507223004 69 269 9.0 15.0 0.00 0.39 0.23 64 1039.8
20260507222824 69 247 10.0 15.0 0.00 0.39 0.23 64 267.5
20260507222338 69 229 7.0 17.0 0.00 0.39 0.23 64
20260507221814 71 259 10.0 17.0 0.00 0.39 0.23 62 1037.6
20260507221514 71 257 6.0 17.0 0.00 0.39 0.23 61 1039.8
20260507221325 72 275 7.0 12.0 0.00 0.39 0.23 62 615.9
20260507220829 73 226 6.0 9.0 0.00 0.39 0.23 62
20260507220333 73 234 1.0 10.0 0.00 0.39 0.23 62
20260507220059 73 238 5.0 10.0 0.00 0.39 0.23 61 1039.8
20260507215816 73 275 1.0 13.0 0.00 0.39 0.23 62 690.9
20260507215333 74 240 8.0 13.0 0.00 0.39 0.23 61
20260507214847 74 260 5.0 16.0 0.00 0.39 0.23 61
20260507214551 73 236 4.0 16.0 0.00 0.39 0.23 62 1039.8
20260507214337 74 234 7.0 16.0 0.00 0.39 0.23 59
20260507213814 74 241 0.0 10.0 0.00 0.39 0.23 63 744.4
20260507213330 74 245 5.0 13.0 0.00 0.39 0.23 64 194.1
20260507213121 74 256 4.0 18.0 0.00 0.39 0.23 62 1039.8
20260507212840 74 273 5.0 18.0 0.00 0.39 0.23 62
20260507212336 74 271 4.0 18.0 0.00 0.39 0.23 65
20260507211822 74 236 6.0 13.0 0.00 0.39 0.23 64
20260507211523 73 219 7.0 17.0 0.00 0.39 0.23 63 1039.8
20260507211328 73 217 8.0 17.0 0.00 0.39 0.23 65 277.3
20260507210836 73 225 10.0 17.0 0.00 0.39 0.23 63
20260507210324 73 252 4.0 12.0 0.00 0.39 0.23 68 588.0
20260507205819 73 240 8.0 12.0 0.00 0.39 0.23 64 899.7
20260507205327 74 250 7.0 15.0 0.00 0.39 0.23 65
20260507204846 75 271 8.0 15.0 0.00 0.39 0.23 62 582.2
20260507204532 75 242 6.0 14.0 0.00 0.39 0.23 63 1039.8
20260507204332 75 248 7.0 14.0 0.00 0.39 0.23 62
20260507203835 76 229 7.0 15.0 0.00 0.39 0.23 63
20260507203313 76 225 9.0 15.0 0.00 0.39 0.23 64 916.5
20260507203014 74 262 5.0 13.0 0.00 0.39 0.23 66 1039.8
20260507202826 75 263 6.0 16.0 0.00 0.39 0.23 66 375.1
20260507202314 75 240 4.0 16.0 0.00 0.39 0.23 64 1050.3
20260507201820 75 227 8.0 18.0 0.00 0.39 0.23 64 64.2
20260507201513 75 244 6.0 18.0 0.00 0.39 0.23 64 1039.8
20260507201330 76 240 8.0 18.0 0.00 0.39 0.23 64 1057.9
20260507200837 76 233 5.0 13.0 0.00 0.39 0.23 67
20260507200325 77 250 4.0 12.0 0.00 0.39 0.23 65 1087.5
20260507200057 77 225 4.0 12.0 0.00 0.39 0.23 62 1039.8
20260507195834 77 200 6.0 12.0 0.00 0.39 0.23 62
20260507195330 77 232 4.0 7.0 0.00 0.39 0.23 66
20260507194833 77 223 0.0 8.0 0.00 0.39 0.23 64
20260507194537 76 213 2.0 12.0 0.00 0.39 0.23 64 1039.8
20260507194336 77 272 2.0 12.0 0.00 0.39 0.23 66
20260507193820 77 229 2.0 12.0 0.00 0.39 0.23 66 1005.0
20260507193320 78 226 4.0 9.0 0.00 0.39 0.23 65
20260507193036 78 239 1.0 15.0 0.00 0.39 0.23 65 1039.8
20260507192813 78 227 4.0 15.0 0.00 0.39 0.23 66 1081.7
20260507192314 78 248 4.0 13.0 0.00 0.39 0.23 67 840.8
20260507191822 78 229 3.0 12.0 0.00 0.39 0.23 69
20260507191521 78 223 5.0 12.0 0.00 0.39 0.23 67 1039.8
20260507191334 79 214 4.0 8.0 0.00 0.39 0.23 71
20260507190828 77 246 2.0 6.0 0.00 0.39 0.23 66
20260507190337 77 232 1.0 9.0 0.00 0.39 0.23 69
20260507190041 77 223 2.0 11.0 0.00 0.39 0.23 68 1039.8
20260507185840 78 266 3.0 11.0 0.00 0.39 0.23 69
20260507185324 80 252 4.0 10.0 0.00 0.39 0.23 68
20260507184844 79 161 6.0 12.0 0.00 0.39 0.23 68 22.3
20260507184509 78 173 7.0 12.0 0.00 0.39 0.23 70 1039.8
20260507184323 79 163 5.0 10.0 0.00 0.39 0.23 69 664.6
20260507183822 78 202 6.0 10.0 0.00 0.39 0.23 72
20260507183331 78 200 6.0 9.0 0.00 0.39 0.23 72 258.9
20260507183104 77 204 5.0 9.0 0.00 0.39 0.23 72 1039.8
20260507182827 78 194 3.0 9.0 0.00 0.39 0.23 74
20260507182315 78 196 4.0 11.0 0.00 0.39 0.23 74
20260507181844 77 164 5.0 16.0 0.00 0.39 0.23 72 274.1
20260507181544 76 179 6.0 16.0 0.00 0.39 0.23 73 1039.8
20260507181332 76 162 8.0 16.0 0.00 0.39 0.23 71 1077.7
20260507180825 77 142 5.0 12.0 0.00 0.39 0.23 75 1047.6
20260507180314 77 177 5.0 9.0 0.00 0.39 0.23 74 334.3
20260507180029 77 167 4.0 9.0 0.00 0.39 0.23 76 1039.8
20260507175843 77 134 2.0 6.0 0.00 0.39 0.23 78 1027.2
20260507175326 76 107 2.0 9.0 0.00 0.39 0.23 75
20260507174837 76 154 4.0 9.0 0.00 0.39 0.23 77 542.4
20260507174513 75 134 4.0 8.0 0.00 0.39 0.23 72 1039.8
20260507174321 76 155 1.0 10.0 0.00 0.39 0.23 74 693.7
20260507173846 76 167 3.0 10.0 0.00 0.39 0.23 75
20260507173327 76 159 4.0 9.0 0.00 0.39 0.23 74 1007.3
20260507173100 75 146 4.0 9.0 0.00 0.39 0.23 74 1039.8
20260507172843 76 154 2.0 7.0 0.00 0.39 0.23 76
20260507172322 76 136 2.0 7.0 0.00 0.41 0.23 79
20260507171830 75 129 0.0 7.0 0.00 0.41 0.23 76 828.5
20260507171531 75 129 3.0 7.0 0.00 0.41 0.23 78 1039.8
20260507171331 75 127 4.0 7.0 0.00 0.41 0.23 78 31.3
20260507170829 75 148 4.0 7.0 0.00 0.41 0.23 81 755.3
20260507170336 74 148 2.0 7.0 0.00 0.41 0.23 82
20260507170002 74 133 0.0 8.0 0.00 0.41 0.23 80 1039.8
20260507165813 74 134 2.0 8.0 0.00 0.41 0.23 81 1046.8
20260507165325 74 146 3.0 8.0 0.00 0.41 0.23 81 1032.5
20260507164848 74 207 4.0 6.0 0.00 0.41 0.23 83
20260507164550 73 150 0.0 11.0 0.00 0.41 0.23 82 1039.8
20260507164337 73 171 0.0 11.0 0.00 0.41 0.23 84 42.4
20260507163814 73 171 6.0 11.0 0.00 0.41 0.23 84
20260507163317 73 149 0.0 6.0 0.00 0.41 0.23 85 469.4
20260507163048 72 149 2.0 6.0 0.00 0.41 0.23 85 1039.8
20260507162819 73 148 2.0 7.0 0.00 0.41 0.23 84 397.1
20260507162323 72 174 1.0 7.0 0.00 0.43 0.23 87 55.2
20260507161824 72 189 4.0 7.0 0.00 0.43 0.23 87 206.1
20260507161547 71 190 2.0 8.0 0.00 0.43 0.23 87 1039.8
20260507161334 72 191 0.0 8.0 0.00 0.43 0.23 87
20260507160823 71 191 5.0 8.0 0.00 0.43 0.23 88
20260507160332 70 161 2.0 8.0 0.00 0.43 0.23 89
20260507160014 70 162 2.0 8.0 0.00 0.43 0.23 89 1039.8
20260507155820 70 161 4.0 8.0 0.00 0.43 0.23 89 738.2
20260507155345 70 156 3.0 8.0 0.00 0.43 0.23 89
20260507154827 70 152 3.0 8.0 0.00 0.43 0.23 90